Maersk Peary — WHKM — position and weather

sailwx.info

Track history (hours):
 
Tides and Currents Weather Stations Pressure Air Temp Water Temp Dewpoint Dewpoint Depression Visibility Wind Speed Wind Dir Waves Ship Positions

Maersk Peary

Owner: Maersk Line, Limited, Norfolk, VA. More information available from US FCC via Universal Licensing System and Coast Guard Vessel Documentation Center.

Last reported at 2017-May-22 00:00 UTC. Time now 2017-May-23 17:04 UTC.
Position N 36°00' E 034°06'.

Length 180 m; draft 8 m.

Type: Ship. MMSI: 368236000.

Wind from 260 at 6 knots

Barometer 1010.0 mb
Air temperature 19.0 ° C
Dewpoint 15.7 ° C

Date/timePositionNaut miles runAvg speedWind from/ knotsBaromVisibWave heightAir tempDewpointWater temp
2017-May-22 00:00N 36°00' E 034°06'81 9.7 260 / 61010.0 19.015.7
2017-May-21 15:40N 35°42' E 032°29'210.8
2017-May-21 15:29N 35°42' E 032°26'611.9
2017-May-21 15:00N 35°42' E 032°19'713.2
2017-May-21 14:28N 35°41' E 032°11'9213.5
2017-May-21 07:41N 35°32' E 030°18'29014.7
2017-May-20 11:58N 35°30' E 024°22'714.8
2017-May-20 11:30N 35°30' E 024°13'121 3.3
2017-May-18 23:04N 37°29' E 023°46'515.0
2017-May-18 22:42N 37°34' E 023°44'315.0
2017-May-18 22:29N 37°37' E 023°44'714.6
2017-May-18 22:00N 37°44' E 023°40'714.6
2017-May-18 21:31N 37°49' E 023°33'714.8
2017-May-18 21:01N 37°51' E 023°24'714.9
2017-May-18 20:30N 37°53' E 023°15'612.9
2017-May-18 20:00N 37°54' E 023°07'2 0.0
2017-May-16 17:37N 37°55' E 023°05'0 0.6
2017-May-16 17:20N 37°55' E 023°05'0 0.8
2017-May-16 16:51N 37°55' E 023°05'1 0.9
2017-May-16 16:16N 37°54' E 023°05'0 0.3
2017-May-16 15:31N 37°54' E 023°05'0 0.1
2017-May-16 15:19N 37°54' E 023°05'0 0.1
2017-May-16 14:49N 37°54' E 023°05'0 0.2
2017-May-16 14:28N 37°54' E 023°05'0 0.0
2017-May-16 13:22N 37°54' E 023°05'0 0.1
2017-May-16 12:58N 37°54' E 023°05'0 0.0
2017-May-16 12:28N 37°54' E 023°05'0 0.1
2017-May-16 11:55N 37°54' E 023°05'0 0.1
2017-May-16 11:13N 37°54' E 023°05'0 0.1
2017-May-16 10:31N 37°54' E 023°05'0 0.1
2017-May-16 10:19N 37°54' E 023°05'0 0.0
2017-May-16 09:49N 37°54' E 023°05'0 0.1
2017-May-16 09:22N 37°54' E 023°04'0 0.1
2017-May-16 08:13N 37°54' E 023°04'0 0.0
2017-May-16 07:46N 37°54' E 023°04'0 0.1
2017-May-16 07:25N 37°54' E 023°05'0 0.1
2017-May-16 06:58N 37°54' E 023°05'0 0.1
2017-May-16 06:28N 37°54' E 023°05'0 0.1
2017-May-16 05:52N 37°54' E 023°05'0 0.1
2017-May-16 05:19N 37°54' E 023°05'0 0.1
2017-May-16 04:49N 37°54' E 023°05'0 0.1
2017-May-16 04:01N 37°54' E 023°04'0 0.0
2017-May-16 03:43N 37°54' E 023°04'0 0.0
2017-May-16 02:13N 37°54' E 023°04'0 0.1
2017-May-16 01:43N 37°54' E 023°04'0 0.0
2017-May-16 01:07N 37°54' E 023°04'0 0.0
2017-May-16 00:07N 37°54' E 023°04'0 0.0
2017-May-15 22:13N 37°54' E 023°04'0 0.0
2017-May-15 21:57N 37°54' E 023°04'0 0.0
2017-May-15 21:30N 37°54' E 023°04'0 0.0
2017-May-15 20:57N 37°54' E 023°04'0 0.0
2017-May-15 20:24N 37°54' E 023°04'0 0.0
2017-May-15 20:00N 37°54' E 023°04'0 0.0
2017-May-15 17:12N 37°54' E 023°04'0 0.0
2017-May-15 16:42N 37°54' E 023°04'0 0.0
2017-May-15 16:21N 37°54' E 023°04'0 0.1
2017-May-15 15:54N 37°54' E 023°04'0 0.0
2017-May-15 15:27N 37°54' E 023°04'0 0.0
2017-May-15 13:51N 37°54' E 023°04'0 0.0
2017-May-15 13:03N 37°54' E 023°04'0 0.1
2017-May-15 12:54N 37°54' E 023°04'0 1.1
2017-May-15 12:30N 37°54' E 023°05'510.6
2017-May-15 12:00N 37°53' E 023°11'612.5
2017-May-15 11:30N 37°52' E 023°19'612.4
2017-May-15 11:00N 37°51' E 023°27'5 9.7
2017-May-15 10:30N 37°54' E 023°32'1 1.3
2017-May-15 10:00N 37°54' E 023°33'0 0.0
2017-May-15 09:30N 37°54' E 023°33'0 0.2
2017-May-15 08:57N 37°54' E 023°33'0 0.3
2017-May-15 08:27N 37°54' E 023°33'0 0.0
2017-May-15 08:00N 37°54' E 023°33'0 0.0
2017-May-15 07:27N 37°54' E 023°33'0 0.1
2017-May-15 07:00N 37°54' E 023°33'0 0.0
2017-May-15 06:30N 37°54' E 023°33'0 0.1
2017-May-15 06:00N 37°54' E 023°33'0 0.0
2017-May-15 05:30N 37°54' E 023°33'0 0.0
2017-May-15 05:00N 37°54' E 023°33'0 0.1
2017-May-15 04:30N 37°54' E 023°33'0 0.1
2017-May-15 04:00N 37°54' E 023°33'0 0.0
2017-May-15 03:30N 37°54' E 023°33'0 0.0
2017-May-15 03:00N 37°54' E 023°33'0 0.0
2017-May-15 02:30N 37°54' E 023°33'0 0.1
2017-May-15 02:00N 37°54' E 023°33'0 0.1
2017-May-15 01:30N 37°54' E 023°33'0 0.1
2017-May-15 01:00N 37°54' E 023°33'0 0.0
2017-May-15 00:30N 37°54' E 023°33'0 0.1
2017-May-15 00:00N 37°54' E 023°33'0 0.0
2017-May-14 23:30N 37°54' E 023°33'0 0.2
2017-May-14 23:00N 37°54' E 023°33'0 0.1
2017-May-14 22:30N 37°54' E 023°33'0 0.0
2017-May-14 22:00N 37°54' E 023°33'0 0.0
2017-May-14 21:30N 37°54' E 023°33'0 0.3
2017-May-14 21:00N 37°54' E 023°33'0 0.1
2017-May-14 20:30N 37°54' E 023°33'0 0.0
2017-May-14 20:00N 37°54' E 023°33'0 0.0
2017-May-14 19:30N 37°54' E 023°33'0 0.0
2017-May-14 19:00N 37°54' E 023°33'0 0.0
2017-May-14 18:30N 37°54' E 023°33'0 0.0
2017-May-14 18:00N 37°54' E 023°33'0 0.0
2017-May-14 17:30N 37°54' E 023°33'0 0.1
2017-May-14 17:00N 37°54' E 023°33'0 0.0
2017-May-14 16:29N 37°54' E 023°33'0 0.0
2017-May-14 15:59N 37°54' E 023°33'0 0.1
2017-May-14 15:29N 37°54' E 023°33'0 0.1
2017-May-14 14:59N 37°54' E 023°33'0 0.1
2017-May-14 14:29N 37°54' E 023°33'0 0.1
2017-May-14 13:29N 37°54' E 023°33'0 0.0
2017-May-14 12:59N 37°54' E 023°33'0 0.1
2017-May-14 12:29N 37°54' E 023°33'0 0.0
2017-May-14 11:59N 37°54' E 023°33'0 0.0
2017-May-14 11:29N 37°54' E 023°33'0 0.1
2017-May-14 10:59N 37°54' E 023°33'0 0.0
2017-May-14 10:29N 37°54' E 023°33'0 0.0
2017-May-14 09:59N 37°54' E 023°33'0 0.0
2017-May-14 09:29N 37°54' E 023°33'0 0.0
2017-May-14 08:59N 37°54' E 023°33'0 0.0
2017-May-14 08:29N 37°54' E 023°33'0 0.0
2017-May-14 07:59N 37°54' E 023°33'0 0.0
2017-May-14 07:29N 37°54' E 023°33'0 0.1
2017-May-14 06:59N 37°54' E 023°33'0 0.1
2017-May-14 06:29N 37°54' E 023°33'0 0.0
2017-May-14 05:59N 37°54' E 023°33'0 0.2
2017-May-14 05:29N 37°54' E 023°33'0 0.2
2017-May-14 04:59N 37°54' E 023°33'0 0.1
2017-May-14 04:29N 37°54' E 023°33'0 0.1
2017-May-14 03:59N 37°54' E 023°33'0 0.1
2017-May-14 03:29N 37°54' E 023°33'0 0.0
2017-May-14 02:59N 37°54' E 023°33'0 0.0
2017-May-14 02:29N 37°54' E 023°33'0 0.0
2017-May-14 01:59N 37°54' E 023°33'0 0.0
2017-May-14 01:29N 37°54' E 023°33'0 0.1
2017-May-14 00:56N 37°54' E 023°33'0 0.0
2017-May-14 00:29N 37°54' E 023°33'0 0.1
2017-May-13 23:59N 37°54' E 023°33'0 0.1
2017-May-13 23:29N 37°54' E 023°33'0 0.1
2017-May-13 22:59N 37°54' E 023°33'0 0.0
2017-May-13 22:29N 37°54' E 023°33'0 0.1
2017-May-13 21:59N 37°54' E 023°33'0 0.0
2017-May-13 21:29N 37°54' E 023°33'0 0.0
2017-May-13 20:59N 37°54' E 023°33'0 0.1
2017-May-13 20:29N 37°54' E 023°33'0 0.1
2017-May-13 19:59N 37°54' E 023°33'0 0.1
2017-May-13 19:29N 37°54' E 023°33'0 0.1
2017-May-13 18:59N 37°54' E 023°33'0 0.3
2017-May-13 18:29N 37°54' E 023°33'0 0.2
2017-May-13 17:59N 37°54' E 023°33'0 0.0
2017-May-13 17:29N 37°54' E 023°33'0 0.0
2017-May-13 16:59N 37°54' E 023°33'0 0.0
2017-May-13 16:29N 37°54' E 023°33'0 0.1
2017-May-13 15:59N 37°54' E 023°33'0 0.0
2017-May-13 15:29N 37°54' E 023°33'0 0.0
2017-May-13 14:59N 37°54' E 023°33'0 0.0
2017-May-13 14:29N 37°54' E 023°33'0 0.0
2017-May-13 13:29N 37°54' E 023°33'0 0.0
2017-May-13 12:59N 37°54' E 023°33'0 0.0
2017-May-13 12:29N 37°54' E 023°33'0 0.1
2017-May-13 11:59N 37°54' E 023°33'0 0.0
2017-May-13 11:29N 37°54' E 023°33'0 0.0
2017-May-13 10:59N 37°54' E 023°33'0 0.0
2017-May-13 10:29N 37°54' E 023°33'0 0.0
2017-May-13 09:59N 37°54' E 023°33'0 0.0
2017-May-13 09:29N 37°54' E 023°33'0 0.0
2017-May-13 08:59N 37°54' E 023°33'0 0.0
2017-May-13 08:29N 37°54' E 023°33'0 0.1
2017-May-13 07:59N 37°54' E 023°33'0 0.0
2017-May-13 07:29N 37°54' E 023°33'0 0.0
2017-May-13 06:59N 37°54' E 023°33'0 0.0
2017-May-13 06:29N 37°54' E 023°33'0 0.0
2017-May-13 05:59N 37°54' E 023°33'0 0.0
2017-May-13 05:29N 37°54' E 023°33'0 0.1
2017-May-13 04:59N 37°54' E 023°33'0 0.0
2017-May-13 04:29N 37°54' E 023°33'0 0.0
2017-May-13 03:59N 37°54' E 023°33'0 0.0
2017-May-13 03:29N 37°54' E 023°33'0 0.0
2017-May-13 02:58N 37°54' E 023°33'0 0.0
2017-May-13 02:28N 37°54' E 023°33'0 0.0
2017-May-13 01:58N 37°54' E 023°33'0 0.1
2017-May-13 01:28N 37°54' E 023°33'0 0.0
2017-May-13 00:58N 37°54' E 023°33'0 0.0
2017-May-13 00:28N 37°54' E 023°33'0 0.0
2017-May-12 23:58N 37°54' E 023°33'0 0.0
2017-May-12 23:28N 37°54' E 023°33'0 0.1
2017-May-12 22:58N 37°54' E 023°33'0 0.0
2017-May-12 22:28N 37°54' E 023°33'0 0.0
2017-May-12 21:58N 37°54' E 023°33'0 0.0
2017-May-12 21:28N 37°54' E 023°33'0 0.0
2017-May-12 20:58N 37°54' E 023°33'0 0.0
2017-May-12 20:28N 37°54' E 023°33'0 0.0
2017-May-12 19:58N 37°54' E 023°33'0 0.0
2017-May-12 19:28N 37°54' E 023°33'0 0.0
2017-May-12 18:58N 37°54' E 023°33'0 0.0
2017-May-12 18:28N 37°54' E 023°33'0 0.0
2017-May-12 17:58N 37°54' E 023°33'0 0.0
2017-May-12 17:28N 37°54' E 023°33'0 0.0
2017-May-12 16:58N 37°54' E 023°33'0 0.0
2017-May-12 16:28N 37°54' E 023°33'0 0.0
2017-May-12 15:58N 37°54' E 023°33'0 0.0
2017-May-12 15:28N 37°54' E 023°33'0 0.1
2017-May-12 14:58N 37°54' E 023°33'0 0.0
2017-May-12 14:28N 37°54' E 023°33'0 0.0
2017-May-12 13:28N 37°54' E 023°33'0 0.0
2017-May-12 12:58N 37°54' E 023°33'0 0.0
2017-May-12 12:25N 37°54' E 023°33'0 0.0
2017-May-12 11:58N 37°54' E 023°33'0 0.0
2017-May-12 11:28N 37°54' E 023°33'0 0.1
2017-May-12 10:58N 37°54' E 023°33'0 0.0
2017-May-12 10:28N 37°54' E 023°33'0 0.0
2017-May-12 09:58N 37°54' E 023°33'0 0.0
2017-May-12 09:25N 37°54' E 023°33'0 0.0
2017-May-12 08:58N 37°54' E 023°33'0 0.0
2017-May-12 08:25N 37°54' E 023°33'0 0.0
2017-May-12 07:58N 37°54' E 023°33'0 0.0
2017-May-12 07:28N 37°54' E 023°33'0 0.0
2017-May-12 06:58N 37°54' E 023°33'0 0.1
2017-May-12 06:28N 37°54' E 023°33'0 0.0
2017-May-12 05:58N 37°54' E 023°33'0 0.1
2017-May-12 05:25N 37°54' E 023°33'0 0.1
2017-May-12 04:58N 37°54' E 023°33'0 0.1
2017-May-12 04:28N 37°54' E 023°33'0 0.3
2017-May-12 03:58N 37°54' E 023°33'0 0.8
2017-May-12 03:30N 37°54' E 023°33'3 6.3
2017-May-12 03:00N 37°52' E 023°36'4 8.2
2017-May-12 02:31N 37°49' E 023°40'3 5.7
2017-May-12 02:00N 37°46' E 023°41'3 5.6
2017-May-12 01:30N 37°44' E 023°43'3 5.6
2017-May-12 01:00N 37°41' E 023°44'3 5.6
2017-May-12 00:31N 37°39' E 023°46'3 5.7
2017-May-12 00:00N 37°36' E 023°47'  
Track history (hours):
 
Tides and Currents Weather Stations Pressure Air Temp Water Temp Dewpoint Dewpoint Depression Visibility Wind Speed Wind Dir Waves Ship Positions

Maersk Peary

Owner: Maersk Line, Limited, Norfolk, VA. More information available from US FCC via Universal Licensing System and Coast Guard Vessel Documentation Center.

Last reported at 2017-May-22 00:00 UTC. Time now 2017-May-23 17:04 UTC.
Position N 36°00' E 034°06'.

Length 180 m; draft 8 m.

Type: Ship. MMSI: 368236000.

Wind from 260 at 6 knots

Barometer 1010.0 mb
Air temperature 19.0 ° C
Dewpoint 15.7 ° C

Date/timePositionNaut miles runAvg speedWind from/ knotsBaromVisibWave heightAir tempDewpointWater temp
2017-May-22 00:00N 36°00' E 034°06'81 9.7 260 / 61010.0 19.015.7
2017-May-21 15:40N 35°42' E 032°29'210.8
2017-May-21 15:29N 35°42' E 032°26'611.9
2017-May-21 15:00N 35°42' E 032°19'713.2
2017-May-21 14:28N 35°41' E 032°11'9213.5
2017-May-21 07:41N 35°32' E 030°18'29014.7
2017-May-20 11:58N 35°30' E 024°22'714.8
2017-May-20 11:30N 35°30' E 024°13'121 3.3
2017-May-18 23:04N 37°29' E 023°46'515.0
2017-May-18 22:42N 37°34' E 023°44'315.0
2017-May-18 22:29N 37°37' E 023°44'714.6
2017-May-18 22:00N 37°44' E 023°40'714.6
2017-May-18 21:31N 37°49' E 023°33'714.8
2017-May-18 21:01N 37°51' E 023°24'714.9
2017-May-18 20:30N 37°53' E 023°15'612.9
2017-May-18 20:00N 37°54' E 023°07'2 0.0
2017-May-16 17:37N 37°55' E 023°05'0 0.6
2017-May-16 17:20N 37°55' E 023°05'0 0.8
2017-May-16 16:51N 37°55' E 023°05'1 0.9
2017-May-16 16:16N 37°54' E 023°05'0 0.3
2017-May-16 15:31N 37°54' E 023°05'0 0.1
2017-May-16 15:19N 37°54' E 023°05'0 0.1
2017-May-16 14:49N 37°54' E 023°05'0 0.2
2017-May-16 14:28N 37°54' E 023°05'0 0.0
2017-May-16 13:22N 37°54' E 023°05'0 0.1
2017-May-16 12:58N 37°54' E 023°05'0 0.0
2017-May-16 12:28N 37°54' E 023°05'0 0.1
2017-May-16 11:55N 37°54' E 023°05'0 0.1
2017-May-16 11:13N 37°54' E 023°05'0 0.1
2017-May-16 10:31N 37°54' E 023°05'0 0.1
2017-May-16 10:19N 37°54' E 023°05'0 0.0
2017-May-16 09:49N 37°54' E 023°05'0 0.1
2017-May-16 09:22N 37°54' E 023°04'0 0.1
2017-May-16 08:13N 37°54' E 023°04'0 0.0
2017-May-16 07:46N 37°54' E 023°04'0 0.1
2017-May-16 07:25N 37°54' E 023°05'0 0.1
2017-May-16 06:58N 37°54' E 023°05'0 0.1
2017-May-16 06:28N 37°54' E 023°05'0 0.1
2017-May-16 05:52N 37°54' E 023°05'0 0.1
2017-May-16 05:19N 37°54' E 023°05'0 0.1
2017-May-16 04:49N 37°54' E 023°05'0 0.1
2017-May-16 04:01N 37°54' E 023°04'0 0.0
2017-May-16 03:43N 37°54' E 023°04'0 0.0
2017-May-16 02:13N 37°54' E 023°04'0 0.1
2017-May-16 01:43N 37°54' E 023°04'0 0.0
2017-May-16 01:07N 37°54' E 023°04'0 0.0
2017-May-16 00:07N 37°54' E 023°04'0 0.0
2017-May-15 22:13N 37°54' E 023°04'0 0.0
2017-May-15 21:57N 37°54' E 023°04'0 0.0
2017-May-15 21:30N 37°54' E 023°04'0 0.0
2017-May-15 20:57N 37°54' E 023°04'0 0.0
2017-May-15 20:24N 37°54' E 023°04'0 0.0
2017-May-15 20:00N 37°54' E 023°04'0 0.0
2017-May-15 17:12N 37°54' E 023°04'0 0.0
2017-May-15 16:42N 37°54' E 023°04'0 0.0
2017-May-15 16:21N 37°54' E 023°04'0 0.1
2017-May-15 15:54N 37°54' E 023°04'0 0.0
2017-May-15 15:27N 37°54' E 023°04'0 0.0
2017-May-15 13:51N 37°54' E 023°04'0 0.0
2017-May-15 13:03N 37°54' E 023°04'0 0.1
2017-May-15 12:54N 37°54' E 023°04'0 1.1
2017-May-15 12:30N 37°54' E 023°05'510.6
2017-May-15 12:00N 37°53' E 023°11'612.5
2017-May-15 11:30N 37°52' E 023°19'612.4
2017-May-15 11:00N 37°51' E 023°27'5 9.7
2017-May-15 10:30N 37°54' E 023°32'1 1.3
2017-May-15 10:00N 37°54' E 023°33'0 0.0
2017-May-15 09:30N 37°54' E 023°33'0 0.2
2017-May-15 08:57N 37°54' E 023°33'0 0.3
2017-May-15 08:27N 37°54' E 023°33'0 0.0
2017-May-15 08:00N 37°54' E 023°33'0 0.0
2017-May-15 07:27N 37°54' E 023°33'0 0.1
2017-May-15 07:00N 37°54' E 023°33'0 0.0
2017-May-15 06:30N 37°54' E 023°33'0 0.1
2017-May-15 06:00N 37°54' E 023°33'0 0.0
2017-May-15 05:30N 37°54' E 023°33'0 0.0
2017-May-15 05:00N 37°54' E 023°33'0 0.1
2017-May-15 04:30N 37°54' E 023°33'0 0.1
2017-May-15 04:00N 37°54' E 023°33'0 0.0
2017-May-15 03:30N 37°54' E 023°33'0 0.0
2017-May-15 03:00N 37°54' E 023°33'0 0.0
2017-May-15 02:30N 37°54' E 023°33'0 0.1
2017-May-15 02:00N 37°54' E 023°33'0 0.1
2017-May-15 01:30N 37°54' E 023°33'0 0.1
2017-May-15 01:00N 37°54' E 023°33'0 0.0
2017-May-15 00:30N 37°54' E 023°33'0 0.1
2017-May-15 00:00N 37°54' E 023°33'0 0.0
2017-May-14 23:30N 37°54' E 023°33'0 0.2
2017-May-14 23:00N 37°54' E 023°33'0 0.1
2017-May-14 22:30N 37°54' E 023°33'0 0.0
2017-May-14 22:00N 37°54' E 023°33'0 0.0
2017-May-14 21:30N 37°54' E 023°33'0 0.3
2017-May-14 21:00N 37°54' E 023°33'0 0.1
2017-May-14 20:30N 37°54' E 023°33'0 0.0
2017-May-14 20:00N 37°54' E 023°33'0 0.0
2017-May-14 19:30N 37°54' E 023°33'0 0.0
2017-May-14 19:00N 37°54' E 023°33'0 0.0
2017-May-14 18:30N 37°54' E 023°33'0 0.0
2017-May-14 18:00N 37°54' E 023°33'0 0.0
2017-May-14 17:30N 37°54' E 023°33'0 0.1
2017-May-14 17:00N 37°54' E 023°33'0 0.0
2017-May-14 16:29N 37°54' E 023°33'0 0.0
2017-May-14 15:59N 37°54' E 023°33'0 0.1
2017-May-14 15:29N 37°54' E 023°33'0 0.1
2017-May-14 14:59N 37°54' E 023°33'0 0.1
2017-May-14 14:29N 37°54' E 023°33'0 0.1
2017-May-14 13:29N 37°54' E 023°33'0 0.0
2017-May-14 12:59N 37°54' E 023°33'0 0.1
2017-May-14 12:29N 37°54' E 023°33'0 0.0
2017-May-14 11:59N 37°54' E 023°33'0 0.0
2017-May-14 11:29N 37°54' E 023°33'0 0.1
2017-May-14 10:59N 37°54' E 023°33'0 0.0
2017-May-14 10:29N 37°54' E 023°33'0 0.0
2017-May-14 09:59N 37°54' E 023°33'0 0.0
2017-May-14 09:29N 37°54' E 023°33'0 0.0
2017-May-14 08:59N 37°54' E 023°33'0 0.0
2017-May-14 08:29N 37°54' E 023°33'0 0.0
2017-May-14 07:59N 37°54' E 023°33'0 0.0
2017-May-14 07:29N 37°54' E 023°33'0 0.1
2017-May-14 06:59N 37°54' E 023°33'0 0.1
2017-May-14 06:29N 37°54' E 023°33'0 0.0
2017-May-14 05:59N 37°54' E 023°33'0 0.2
2017-May-14 05:29N 37°54' E 023°33'0 0.2
2017-May-14 04:59N 37°54' E 023°33'0 0.1
2017-May-14 04:29N 37°54' E 023°33'0 0.1
2017-May-14 03:59N 37°54' E 023°33'0 0.1
2017-May-14 03:29N 37°54' E 023°33'0 0.0
2017-May-14 02:59N 37°54' E 023°33'0 0.0
2017-May-14 02:29N 37°54' E 023°33'0 0.0
2017-May-14 01:59N 37°54' E 023°33'0 0.0
2017-May-14 01:29N 37°54' E 023°33'0 0.1
2017-May-14 00:56N 37°54' E 023°33'0 0.0
2017-May-14 00:29N 37°54' E 023°33'0 0.1
2017-May-13 23:59N 37°54' E 023°33'0 0.1
2017-May-13 23:29N 37°54' E 023°33'0 0.1
2017-May-13 22:59N 37°54' E 023°33'0 0.0
2017-May-13 22:29N 37°54' E 023°33'0 0.1
2017-May-13 21:59N 37°54' E 023°33'0 0.0
2017-May-13 21:29N 37°54' E 023°33'0 0.0
2017-May-13 20:59N 37°54' E 023°33'0 0.1
2017-May-13 20:29N 37°54' E 023°33'0 0.1
2017-May-13 19:59N 37°54' E 023°33'0 0.1
2017-May-13 19:29N 37°54' E 023°33'0 0.1
2017-May-13 18:59N 37°54' E 023°33'0 0.3
2017-May-13 18:29N 37°54' E 023°33'0 0.2
2017-May-13 17:59N 37°54' E 023°33'0 0.0
2017-May-13 17:29N 37°54' E 023°33'0 0.0
2017-May-13 16:59N 37°54' E 023°33'0 0.0
2017-May-13 16:29N 37°54' E 023°33'0 0.1
2017-May-13 15:59N 37°54' E 023°33'0 0.0
2017-May-13 15:29N 37°54' E 023°33'0 0.0
2017-May-13 14:59N 37°54' E 023°33'0 0.0
2017-May-13 14:29N 37°54' E 023°33'0 0.0
2017-May-13 13:29N 37°54' E 023°33'0 0.0
2017-May-13 12:59N 37°54' E 023°33'0 0.0
2017-May-13 12:29N 37°54' E 023°33'0 0.1
2017-May-13 11:59N 37°54' E 023°33'0 0.0
2017-May-13 11:29N 37°54' E 023°33'0 0.0
2017-May-13 10:59N 37°54' E 023°33'0 0.0
2017-May-13 10:29N 37°54' E 023°33'0 0.0
2017-May-13 09:59N 37°54' E 023°33'0 0.0
2017-May-13 09:29N 37°54' E 023°33'0 0.0
2017-May-13 08:59N 37°54' E 023°33'0 0.0
2017-May-13 08:29N 37°54' E 023°33'0 0.1
2017-May-13 07:59N 37°54' E 023°33'0 0.0
2017-May-13 07:29N 37°54' E 023°33'0 0.0
2017-May-13 06:59N 37°54' E 023°33'0 0.0
2017-May-13 06:29N 37°54' E 023°33'0 0.0
2017-May-13 05:59N 37°54' E 023°33'0 0.0
2017-May-13 05:29N 37°54' E 023°33'0 0.1
2017-May-13 04:59N 37°54' E 023°33'0 0.0
2017-May-13 04:29N 37°54' E 023°33'0 0.0
2017-May-13 03:59N 37°54' E 023°33'0 0.0
2017-May-13 03:29N 37°54' E 023°33'0 0.0
2017-May-13 02:58N 37°54' E 023°33'0 0.0
2017-May-13 02:28N 37°54' E 023°33'0 0.0
2017-May-13 01:58N 37°54' E 023°33'0 0.1
2017-May-13 01:28N 37°54' E 023°33'0 0.0
2017-May-13 00:58N 37°54' E 023°33'0 0.0
2017-May-13 00:28N 37°54' E 023°33'0 0.0
2017-May-12 23:58N 37°54' E 023°33'0 0.0
2017-May-12 23:28N 37°54' E 023°33'0 0.1
2017-May-12 22:58N 37°54' E 023°33'0 0.0
2017-May-12 22:28N 37°54' E 023°33'0 0.0
2017-May-12 21:58N 37°54' E 023°33'0 0.0
2017-May-12 21:28N 37°54' E 023°33'0 0.0
2017-May-12 20:58N 37°54' E 023°33'0 0.0
2017-May-12 20:28N 37°54' E 023°33'0 0.0
2017-May-12 19:58N 37°54' E 023°33'0 0.0
2017-May-12 19:28N 37°54' E 023°33'0 0.0
2017-May-12 18:58N 37°54' E 023°33'0 0.0
2017-May-12 18:28N 37°54' E 023°33'0 0.0
2017-May-12 17:58N 37°54' E 023°33'0 0.0
2017-May-12 17:28N 37°54' E 023°33'0 0.0
2017-May-12 16:58N 37°54' E 023°33'0 0.0
2017-May-12 16:28N 37°54' E 023°33'0 0.0
2017-May-12 15:58N 37°54' E 023°33'0 0.0
2017-May-12 15:28N 37°54' E 023°33'0 0.1
2017-May-12 14:58N 37°54' E 023°33'0 0.0
2017-May-12 14:28N 37°54' E 023°33'0 0.0
2017-May-12 13:28N 37°54' E 023°33'0 0.0
2017-May-12 12:58N 37°54' E 023°33'0 0.0
2017-May-12 12:25N 37°54' E 023°33'0 0.0
2017-May-12 11:58N 37°54' E 023°33'0 0.0
2017-May-12 11:28N 37°54' E 023°33'0 0.1
2017-May-12 10:58N 37°54' E 023°33'0 0.0
2017-May-12 10:28N 37°54' E 023°33'0 0.0
2017-May-12 09:58N 37°54' E 023°33'0 0.0
2017-May-12 09:25N 37°54' E 023°33'0 0.0
2017-May-12 08:58N 37°54' E 023°33'0 0.0
2017-May-12 08:25N 37°54' E 023°33'0 0.0
2017-May-12 07:58N 37°54' E 023°33'0 0.0
2017-May-12 07:28N 37°54' E 023°33'0 0.0
2017-May-12 06:58N 37°54' E 023°33'0 0.1
2017-May-12 06:28N 37°54' E 023°33'0 0.0
2017-May-12 05:58N 37°54' E 023°33'0 0.1
2017-May-12 05:25N 37°54' E 023°33'0 0.1
2017-May-12 04:58N 37°54' E 023°33'0 0.1
2017-May-12 04:28N 37°54' E 023°33'0 0.3
2017-May-12 03:58N 37°54' E 023°33'0 0.8
2017-May-12 03:30N 37°54' E 023°33'3 6.3
2017-May-12 03:00N 37°52' E 023°36'4 8.2
2017-May-12 02:31N 37°49' E 023°40'3 5.7
2017-May-12 02:00N 37°46' E 023°41'3 5.6
2017-May-12 01:30N 37°44' E 023°43'3 5.6
2017-May-12 01:00N 37°41' E 023°44'3 5.6
2017-May-12 00:31N 37°39' E 023°46'3 5.7
2017-May-12 00:00N 37°36' E 023°47'  

Dump ship's entire track history